| time (UTC) | temp C | wind direction | speed KPH | gust KPH | rain 1hr cm | rain 24hr cm | rain mn cm | humidity % | barometer mb |
| 20260509134526 | 22 | 306 | 1.6 | 3.2 | 0.00 | 0.08 | 0.00 | 86 | 1010.4 |
| 20260509133526 | 21 | 307 | 1.6 | 6.4 | 0.00 | 0.08 | 0.00 | 87 | 1010.3 |
| 20260509132546 | 21 | 319 | 1.6 | 4.8 | 0.00 | 0.08 | 0.00 | 88 | 1010.3 |
| 20260509131526 | 21 | 312 | 1.6 | 6.4 | 0.00 | 0.08 | 0.00 | 89 | 1010.3 |
| 20260509130526 | 21 | 308 | 1.6 | 4.8 | 0.00 | 0.08 | 0.00 | 90 | 1010.3 |
| 20260509125527 | 21 | 315 | 1.6 | 4.8 | 0.00 | 0.08 | 0.00 | 91 | 1010.3 |
| 20260509124527 | 20 | 311 | 1.6 | 4.8 | 0.00 | 0.08 | 0.00 | 91 | 1010.1 |
| 20260509123527 | 20 | 305 | 0.0 | 1.6 | 0.00 | 0.08 | 0.00 | 91 | 1010.1 |
| 20260509122527 | 20 | 310 | 1.6 | 6.4 | 0.00 | 0.08 | 0.00 | 91 | 1010.1 |
| 20260509121527 | 20 | 317 | 1.6 | 4.8 | 0.00 | 0.08 | 0.00 | 90 | 1010.1 |
| 20260509120528 | 20 | 320 | 1.6 | 6.4 | 0.00 | 0.08 | 0.00 | 89 | 1010.1 |
| 20260509115548 | 20 | 311 | 1.6 | 6.4 | 0.00 | 0.08 | 0.00 | 87 | 1010.1 |
| 20260509114528 | 20 | 303 | 1.6 | 4.8 | 0.00 | 0.08 | 0.00 | 86 | 1009.8 |
| 20260509113528 | 21 | 318 | 1.6 | 4.8 | 0.00 | 0.08 | 0.00 | 85 | 1009.5 |
| 20260509112528 | 21 | 316 | 0.0 | 1.6 | 0.00 | 0.08 | 0.00 | 84 | 1009.3 |
| 20260509111548 | 21 | 319 | 0.0 | 1.6 | 0.00 | 0.08 | 0.00 | 85 | 1009.0 |
| 20260509110528 | 21 | 305 | 0.0 | 3.2 | 0.00 | 0.08 | 0.00 | 87 | 1008.7 |
| 20260509105549 | 21 | 0.0 | 0.0 | 0.00 | 0.08 | 0.00 | 88 | 1008.4 | |
| 20260509104529 | 21 | 342 | 0.0 | 1.6 | 0.00 | 0.08 | 0.00 | 88 | 1008.6 |
| 20260509103529 | 21 | 335 | 0.0 | 3.2 | 0.00 | 0.08 | 0.00 | 90 | 1008.5 |
| 20260509102529 | 21 | 0.0 | 0.0 | 0.00 | 0.08 | 0.00 | 90 | 1008.5 | |
| 20260509101515 | 21 | 0.0 | 0.0 | 0.00 | 0.08 | 0.00 | 89 | 1008.4 | |
| 20260509100515 | 21 | 0.0 | 0.0 | 0.00 | 0.08 | 0.00 | 89 | 1008.4 | |
| 20260509095516 | 21 | 70 | 0.0 | 0.0 | 0.00 | 0.08 | 0.00 | 89 | 1008.1 |
| 20260509094516 | 21 | 0 | 0.0 | 1.6 | 0.00 | 0.08 | 0.00 | 89 | 1007.9 |
| 20260509093517 | 21 | 149 | 1.6 | 6.4 | 0.00 | 0.10 | 0.00 | 89 | 1007.9 |
| 20260509092516 | 22 | 178 | 0.0 | 3.2 | 0.00 | 0.13 | 0.00 | 88 | 1008.0 |
| 20260509091536 | 22 | 304 | 0.0 | 4.8 | 0.00 | 0.13 | 0.00 | 89 | 1008.1 |
| 20260509090517 | 21 | 305 | 1.6 | 4.8 | 0.00 | 0.13 | 0.00 | 89 | 1007.9 |
| 20260509085517 | 21 | 137 | 1.6 | 8.0 | 0.00 | 0.13 | 0.00 | 89 | 1006.7 |
| 20260509084520 | 21 | 151 | 3.2 | 11.3 | 0.00 | 0.13 | 0.00 | 89 | 1006.4 |
| 20260509083521 | 21 | 156 | 4.8 | 14.5 | 0.00 | 0.13 | 0.00 | 89 | 1006.0 |
| 20260509082521 | 21 | 153 | 4.8 | 9.7 | 0.00 | 0.15 | 0.00 | 89 | 1006.6 |
| 20260509081638 | 21 | 145 | 3.2 | 6.4 | 0.00 | 0.15 | 0.00 | 89 | 1007.2 |
| 20260509080518 | 21 | 134 | 3.2 | 8.0 | 0.00 | 0.15 | 0.00 | 88 | 1007.8 |
| 20260509075519 | 21 | 105 | 1.6 | 4.8 | 0.00 | 0.15 | 0.00 | 89 | 1008.4 |
| 20260509074518 | 21 | 0.0 | 0.0 | 0.00 | 0.15 | 0.00 | 88 | 1009.1 | |
| 20260509073518 | 21 | 131 | 0.0 | 3.2 | 0.00 | 0.15 | 0.00 | 89 | 1009.2 |
| 20260509072518 | 21 | 91 | 0.0 | 3.2 | 0.00 | 0.15 | 0.00 | 89 | 1009.6 |
| 20260509071520 | 21 | 59 | 0.0 | 1.6 | 0.00 | 0.15 | 0.00 | 89 | 1009.9 |
| 20260509070519 | 21 | 73 | 0.0 | 0.0 | 0.00 | 0.15 | 0.00 | 88 | 1010.1 |
| 20260509065519 | 21 | 332 | 0.0 | 1.6 | 0.00 | 0.15 | 0.00 | 88 | 1010.5 |
| 20260509064519 | 21 | 332 | 0.0 | 1.6 | 0.00 | 0.15 | 0.00 | 89 | 1010.4 |
| 20260509063539 | 21 | 0.0 | 0.0 | 0.00 | 0.15 | 0.00 | 89 | 1010.2 | |
| 20260509062519 | 20 | 344 | 0.0 | 1.6 | 0.00 | 0.15 | 0.00 | 89 | 1010.1 |
| 20260509061520 | 21 | 0.0 | 0.0 | 0.00 | 0.15 | 0.00 | 88 | 1010.2 | |
| 20260509060521 | 21 | 0.0 | 0.0 | 0.00 | 0.15 | 0.00 | 88 | 1010.3 | |
| 20260509055520 | 21 | 64 | 0.0 | 0.0 | 0.00 | 0.15 | 0.00 | 87 | 1010.3 |
| 20260509054520 | 21 | 0.0 | 0.0 | 0.00 | 0.15 | 0.00 | 86 | 1010.8 | |
| 20260509053520 | 21 | 2 | 0.0 | 1.6 | 0.00 | 0.15 | 0.00 | 85 | 1010.7 |
| 20260509052540 | 22 | 0.0 | 0.0 | 0.00 | 0.15 | 0.00 | 84 | 1011.1 | |
| 20260509051521 | 22 | 310 | 1.6 | 4.8 | 0.00 | 0.15 | 0.00 | 84 | 1011.4 |
| 20260509050521 | 22 | 345 | 1.6 | 3.2 | 0.00 | 0.15 | 0.00 | 84 | 1010.6 |
| 20260509045521 | 22 | 0.0 | 0.0 | 0.00 | 0.15 | 0.15 | 84 | 1010.1 | |
| 20260509044521 | 22 | 127 | 0.0 | 1.6 | 0.00 | 0.15 | 0.15 | 83 | 1010.1 |
| 20260509043521 | 22 | 143 | 0.0 | 1.6 | 0.00 | 0.15 | 0.15 | 82 | 1010.1 |
| 20260509042522 | 22 | 143 | 1.6 | 4.8 | 0.00 | 0.15 | 0.15 | 82 | 1009.9 |
| 20260509041522 | 22 | 161 | 1.6 | 4.8 | 0.00 | 0.15 | 0.15 | 81 | 1009.8 |
| 20260509040543 | 22 | 150 | 3.2 | 4.8 | 0.00 | 0.15 | 0.15 | 81 | 1009.7 |
| 20260509035523 | 22 | 154 | 3.2 | 6.4 | 0.00 | 0.15 | 0.15 | 80 | 1009.5 |
| 20260509034522 | 22 | 159 | 0.0 | 4.8 | 0.00 | 0.15 | 0.15 | 80 | 1010.3 |
| 20260509033522 | 22 | 0.0 | 0.0 | 0.00 | 0.15 | 0.15 | 80 | 1010.4 | |
| 20260509032537 | -17 | 0.0 | 0.0 | 0.00 | 0.15 | 0.15 | |||
| 20260509031517 | 22 | 71 | 0.0 | 3.2 | 0.00 | 0.15 | 0.15 | 80 | 1009.9 |
| 20260509030517 | 22 | 85 | 0.0 | 3.2 | 0.00 | 0.15 | 0.15 | 80 | 1009.6 |
| 20260509025518 | 22 | 152 | 1.6 | 6.4 | 0.00 | 0.15 | 0.15 | 80 | 1009.2 |
| 20260509024518 | 22 | 145 | 1.6 | 9.7 | 0.00 | 0.15 | 0.15 | 79 | 1008.9 |
| 20260509023518 | 22 | 152 | 1.6 | 4.8 | 0.00 | 0.15 | 0.15 | 79 | 1008.7 |
| 20260509022518 | 22 | 159 | 3.2 | 8.0 | 0.00 | 0.15 | 0.15 | 79 | 1008.5 |
| 20260509021515 | 22 | 152 | 3.2 | 8.0 | 0.00 | 0.15 | 0.15 | 79 | 1008.4 |
| 20260509020516 | 22 | 159 | 3.2 | 9.7 | 0.00 | 0.15 | 0.15 | 78 | 1008.5 |
| 20260509015516 | 23 | 155 | 3.2 | 9.7 | 0.00 | 0.15 | 0.15 | 77 | 1008.2 |
| 20260509014518 | 23 | 143 | 1.6 | 6.4 | 0.00 | 0.15 | 0.15 | 77 | 1008.4 |
| 20260509013536 | 23 | 144 | 1.6 | 4.8 | 0.00 | 0.15 | 0.15 | 77 | 1008.6 |
| 20260509012516 | 23 | 143 | 1.6 | 6.4 | 0.00 | 0.15 | 0.15 | 76 | 1008.6 |
| 20260509011516 | 23 | 157 | 1.6 | 6.4 | 0.00 | 0.15 | 0.15 | 76 | 1008.6 |
| 20260509010519 | 23 | 148 | 1.6 | 4.8 | 0.00 | 0.15 | 0.15 | 76 | 1008.3 |
| 20260509005517 | 23 | 128 | 0.0 | 3.2 | 0.00 | 0.15 | 0.15 | 75 | 1008.2 |
| 20260509004517 | 23 | 145 | 1.6 | 6.4 | 0.00 | 0.15 | 0.15 | 75 | 1007.9 |
| 20260509003537 | 23 | 137 | 1.6 | 4.8 | 0.00 | 0.15 | 0.15 | 74 | 1007.9 |
| 20260509002518 | 23 | 144 | 1.6 | 8.0 | 0.00 | 0.15 | 0.15 | 74 | 1007.8 |
| 20260509001541 | 23 | 142 | 3.2 | 8.0 | 0.00 | 0.15 | 0.15 | 74 | 1007.8 |
| 20260509000518 | 23 | 156 | 3.2 | 9.7 | 0.00 | 0.15 | 0.15 | 73 | 1007.9 |
| 20260508235518 | 23 | 144 | 3.2 | 11.3 | 0.00 | 0.15 | 0.15 | 73 | 1008.1 |
| 20260508234518 | 23 | 147 | 1.6 | 8.0 | 0.00 | 0.15 | 0.15 | 72 | 1008.3 |
| 20260508233518 | 23 | 150 | 3.2 | 9.7 | 0.00 | 0.15 | 0.15 | 71 | 1008.3 |
| 20260508232519 | 23 | 161 | 4.8 | 9.7 | 0.00 | 0.15 | 0.15 | 71 | 1008.4 |
| 20260508231516 | 24 | 162 | 3.2 | 9.7 | 0.00 | 0.15 | 0.15 | 70 | 1008.4 |
| 20260508230516 | 24 | 150 | 1.6 | 6.4 | 0.00 | 0.15 | 0.15 | 70 | 1008.4 |
| 20260508225516 | 24 | 154 | 4.8 | 12.9 | 0.00 | 0.15 | 0.15 | 68 | 1008.4 |
| 20260508224517 | 24 | 159 | 4.8 | 9.7 | 0.00 | 0.15 | 0.15 | 67 | 1008.4 |
| 20260508223536 | 24 | 148 | 3.2 | 8.0 | 0.00 | 0.15 | 0.15 | 67 | 1008.4 |
| 20260508222516 | 24 | 136 | 1.6 | 6.4 | 0.00 | 0.15 | 0.15 | 68 | 1008.4 |
| 20260508221540 | 24 | 147 | 3.2 | 9.7 | 0.00 | 0.15 | 0.15 | 67 | 1008.5 |
| 20260508220516 | 24 | 145 | 3.2 | 9.7 | 0.00 | 0.15 | 0.15 | 66 | 1008.4 |
| 20260508215517 | 24 | 161 | 6.4 | 9.7 | 0.00 | 0.15 | 0.15 | 66 | 1008.4 |
| 20260508214537 | 24 | 156 | 4.8 | 11.3 | 0.00 | 0.15 | 0.15 | 66 | 1008.5 |
| 20260508213521 | 23 | 154 | 3.2 | 8.0 | 0.00 | 0.15 | 0.15 | 67 | 1008.6 |
| 20260508212537 | 23 | 172 | 1.6 | 4.8 | 0.08 | 0.15 | 0.15 | 68 | 1008.8 |
| 20260508211518 | 24 | 152 | 1.6 | 6.4 | 0.08 | 0.15 | 0.15 | 67 | 1008.9 |
| 20260508210517 | 23 | 161 | 1.6 | 6.4 | 0.08 | 0.15 | 0.15 | 69 | 1008.8 |
| 20260508205518 | 23 | 156 | 3.2 | 11.3 | 0.08 | 0.15 | 0.15 | 70 | 1009.1 |
| 20260508204518 | 22 | 162 | 3.2 | 9.7 | 0.08 | 0.15 | 0.15 | 74 | 1009.4 |
| 20260508203518 | 22 | 146 | 0.0 | 4.8 | 0.08 | 0.15 | 0.15 | 71 | 1010.1 |
| 20260508202518 | 23 | 152 | 1.6 | 8.0 | 0.00 | 0.10 | 0.10 | 67 | 1010.6 |
| 20260508201516 | 23 | 142 | 1.6 | 8.0 | 0.00 | 0.10 | 0.10 | 65 | 1010.8 |
| 20260508200515 | 23 | 73 | 0.0 | 3.2 | 0.00 | 0.10 | 0.10 | 66 | 1010.6 |
| 20260508195556 | 24 | 131 | 1.6 | 4.8 | 0.00 | 0.10 | 0.10 | 66 | 1010.7 |
| 20260508194516 | 24 | 143 | 1.6 | 9.7 | 0.00 | 0.10 | 0.10 | 66 | 1010.5 |
| 20260508193516 | 24 | 151 | 3.2 | 11.3 | 0.00 | 0.10 | 0.10 | 66 | 1010.6 |
| 20260508192516 | 24 | 155 | 4.8 | 11.3 | 0.00 | 0.10 | 0.10 | 66 | 1010.7 |
| 20260508191516 | 24 | 146 | 3.2 | 9.7 | 0.00 | 0.10 | 0.10 | 66 | 1010.8 |
| 20260508190517 | 25 | 148 | 3.2 | 9.7 | 0.00 | 0.10 | 0.10 | 64 | 1010.8 |
| 20260508185516 | 25 | 138 | 0.0 | 6.4 | 0.00 | 0.10 | 0.10 | 63 | 1010.9 |
| 20260508184517 | 25 | 155 | 3.2 | 9.7 | 0.00 | 0.10 | 0.10 | 63 | 1010.9 |
| 20260508183517 | 26 | 133 | 3.2 | 8.0 | 0.00 | 0.10 | 0.10 | 61 | 1011.0 |
| 20260508182517 | 26 | 138 | 1.6 | 9.7 | 0.00 | 0.10 | 0.10 | 62 | 1011.1 |
| 20260508181517 | 25 | 130 | 1.6 | 8.0 | 0.00 | 0.10 | 0.10 | 61 | 1011.3 |
| 20260508180518 | 25 | 135 | 1.6 | 4.8 | 0.00 | 0.10 | 0.10 | 63 | 1011.6 |
| 20260508175518 | 25 | 156 | 4.8 | 9.7 | 0.00 | 0.10 | 0.10 | 60 | 1011.8 |
| 20260508174518 | 25 | 138 | 3.2 | 8.0 | 0.00 | 0.10 | 0.10 | 61 | 1011.9 |
| 20260508173518 | 25 | 134 | 3.2 | 8.0 | 0.00 | 0.10 | 0.10 | 61 | 1011.9 |
| 20260508172519 | 25 | 142 | 3.2 | 8.0 | 0.00 | 0.10 | 0.10 | 61 | 1012.1 |
| 20260508171518 | 23 | 133 | 3.2 | 9.7 | 0.00 | 0.10 | 0.10 | 62 | 1012.2 |
| 20260508170518 | 23 | 152 | 3.2 | 8.0 | 0.00 | 0.10 | 0.10 | 62 | 1012.4 |
| 20260508165516 | 22 | 146 | 3.2 | 9.7 | 0.00 | 0.10 | 0.10 | 63 | 1012.7 |
| 20260508164515 | 22 | 152 | 3.2 | 8.0 | 0.00 | 0.10 | 0.10 | 64 | 1013.0 |
| 20260508163536 | 22 | 156 | 3.2 | 6.4 | 0.00 | 0.10 | 0.10 | 64 | 1013.1 |
| 20260508162516 | 21 | 158 | 3.2 | 11.3 | 0.00 | 0.10 | 0.10 | 66 | 1013.4 |
| 20260508161517 | 21 | 160 | 3.2 | 8.0 | 0.00 | 0.10 | 0.10 | 66 | 1013.5 |
| 20260508160516 | 22 | 144 | 3.2 | 8.0 | 0.00 | 0.10 | 0.10 | 65 | 1013.6 |
| 20260508155517 | 21 | 157 | 3.2 | 9.7 | 0.00 | 0.10 | 0.10 | 65 | 1013.8 |
| 20260508154517 | 21 | 160 | 3.2 | 6.4 | 0.00 | 0.10 | 0.10 | 67 | 1013.8 |
| 20260508153520 | 20 | 125 | 3.2 | 8.0 | 0.00 | 0.10 | 0.10 | 68 | 1013.9 |
| 20260508152540 | 20 | 139 | 0.0 | 4.8 | 0.00 | 0.10 | 0.10 | 69 | 1014.0 |
| 20260508151521 | 20 | 142 | 1.6 | 4.8 | 0.00 | 0.10 | 0.10 | 68 | 1014.1 |
| 20260508150521 | 20 | 150 | 1.6 | 4.8 | 0.00 | 0.10 | 0.10 | 69 | 1014.1 |
| 20260508145521 | 20 | 142 | 1.6 | 4.8 | 0.00 | 0.10 | 0.10 | 71 | 1014.1 |
| 20260508144520 | 19 | 139 | 1.6 | 3.2 | 0.00 | 0.10 | 0.10 | 70 | 1014.1 |
| 20260508143521 | 19 | 143 | 1.6 | 4.8 | 0.00 | 0.10 | 0.10 | 70 | 1014.3 |
| 20260508142541 | 18 | 132 | 3.2 | 9.7 | 0.00 | 0.10 | 0.10 | 71 | 1014.2 |
| 20260508141522 | 18 | 155 | 1.6 | 6.4 | 0.00 | 0.10 | 0.10 | 73 | 1014.4 |
| 20260508140522 | 18 | 146 | 1.6 | 3.2 | 0.00 | 0.10 | 0.10 | 72 | 1014.4 |
| 20260508135516 | 18 | 158 | 4.8 | 9.7 | 0.00 | 0.10 | 0.10 | 72 | 1014.3 |